createdAt,value
2018-02-08T00:00:14.298Z,0.30
2018-02-08T00:02:41.753Z,0.30
2018-02-08T00:05:10.189Z,0.30
2018-02-08T00:07:38.395Z,0.30
2018-02-08T00:10:10.448Z,0.30
2018-02-08T00:12:38.670Z,0.20
2018-02-08T00:15:06.113Z,0.20
2018-02-08T00:17:33.547Z,0.30
2018-02-08T00:20:04.363Z,0.20
2018-02-08T00:22:44.472Z,0.20
2018-02-08T00:25:11.912Z,0.20
2018-02-08T00:27:39.362Z,0.10
2018-02-08T00:30:06.807Z,0.00
2018-02-08T00:32:34.245Z,0.10
2018-02-08T00:35:02.463Z,0.20
2018-02-08T00:37:31.927Z,0.20
2018-02-08T00:40:00.142Z,0.30
2018-02-08T00:42:27.596Z,0.30
2018-02-08T00:44:55.024Z,0.30
2018-02-08T00:47:22.468Z,0.30
2018-02-08T00:49:50.685Z,0.40
2018-02-08T00:52:18.118Z,0.40
2018-02-08T00:54:45.563Z,0.40
2018-02-08T00:57:13.800Z,0.50
2018-02-08T00:59:41.288Z,0.50
2018-02-08T01:02:09.492Z,0.60
2018-02-08T01:04:36.945Z,0.60
2018-02-08T01:07:04.380Z,0.60
2018-02-08T01:09:32.594Z,0.60
2018-02-08T01:12:00.062Z,0.70
2018-02-08T01:14:27.483Z,0.70
2018-02-08T01:16:54.932Z,0.70
2018-02-08T01:19:24.126Z,0.80
2018-02-08T01:21:52.338Z,0.80
2018-02-08T01:24:19.767Z,0.80
2018-02-08T01:26:47.980Z,0.90
2018-02-08T01:29:15.435Z,0.90
2018-02-08T01:31:42.889Z,1.00
2018-02-08T01:34:10.324Z,1.00
2018-02-08T01:36:37.775Z,1.00
2018-02-08T01:39:05.261Z,1.00
2018-02-08T01:41:33.438Z,1.00
2018-02-08T01:44:00.877Z,1.00
2018-02-08T01:46:28.324Z,1.00
2018-02-08T01:48:55.763Z,1.00
2018-02-08T01:51:23.979Z,1.10
2018-02-08T01:53:53.456Z,1.00
2018-02-08T01:56:20.887Z,1.10
2018-02-08T01:58:48.340Z,1.00
2018-02-08T02:01:15.780Z,1.00
2018-02-08T02:03:43.229Z,1.00
2018-02-08T02:06:10.671Z,1.00
2018-02-08T02:08:38.120Z,0.90
2018-02-08T02:11:05.575Z,1.00
2018-02-08T02:13:33.016Z,0.90
2018-02-08T02:16:00.452Z,1.00
2018-02-08T02:18:28.674Z,1.10
2018-02-08T02:20:56.109Z,1.00
2018-02-08T02:23:23.549Z,1.10
2018-02-08T02:25:51.772Z,1.10
2018-02-08T02:28:19.199Z,1.10
2018-02-08T02:30:46.652Z,1.10
2018-02-08T02:33:14.120Z,1.10
2018-02-08T02:35:41.593Z,1.10
2018-02-08T02:38:11.058Z,1.20
2018-02-08T02:40:39.271Z,1.20
2018-02-08T02:43:06.724Z,1.20
2018-02-08T02:45:34.161Z,1.20
2018-02-08T02:48:02.631Z,1.20
2018-02-08T02:50:30.851Z,1.20
2018-02-08T02:52:58.291Z,1.20
2018-02-08T02:55:25.750Z,1.20
2018-02-08T02:57:53.188Z,1.20
2018-02-08T03:00:20.624Z,1.20
2018-02-08T03:02:48.868Z,1.20
2018-02-08T03:05:16.315Z,1.20
2018-02-08T03:07:43.770Z,1.20
2018-02-08T03:10:11.215Z,1.30
2018-02-08T03:12:38.684Z,1.30
2018-02-08T03:15:06.130Z,1.30
2018-02-08T03:17:33.582Z,1.30
2018-02-08T03:20:01.025Z,1.30
2018-02-08T03:22:28.484Z,1.30
2018-02-08T03:24:55.928Z,1.30
2018-02-08T03:27:24.144Z,1.20
2018-02-08T03:29:51.610Z,1.20
2018-02-08T03:32:19.042Z,1.20
2018-02-08T03:34:49.641Z,1.20
2018-02-08T03:37:17.859Z,1.20
2018-02-08T03:39:45.311Z,1.10
2018-02-08T03:42:12.757Z,1.00
2018-02-08T03:44:40.202Z,1.10
2018-02-08T03:47:07.652Z,1.10
2018-02-08T03:49:35.870Z,1.00
2018-02-08T03:52:03.321Z,1.00
2018-02-08T03:54:30.761Z,1.00
2018-02-08T03:56:58.209Z,1.00
2018-02-08T03:59:25.648Z,1.00
2018-02-08T04:01:53.865Z,1.00
2018-02-08T04:04:21.306Z,1.00
2018-02-08T04:06:48.758Z,1.00
2018-02-08T04:09:16.203Z,0.90
2018-02-08T04:11:44.412Z,0.90
2018-02-08T04:14:12.849Z,0.90
2018-02-08T04:16:41.066Z,0.80
2018-02-08T04:19:08.509Z,0.80
2018-02-08T04:21:35.952Z,0.80
2018-02-08T04:24:03.386Z,0.70
2018-02-08T04:26:30.837Z,0.70
2018-02-08T04:28:58.268Z,0.70
2018-02-08T04:31:25.721Z,0.60
2018-02-08T04:33:53.224Z,0.60
2018-02-08T04:36:21.443Z,0.50
2018-02-08T04:39:00.838Z,0.40
2018-02-08T04:41:40.798Z,0.40
2018-02-08T04:44:21.064Z,0.30
2018-02-08T04:49:51.084Z,0.30
2018-02-08T04:52:19.303Z,0.20
2018-02-08T04:54:46.750Z,0.20
2018-02-08T04:57:14.213Z,0.20
2018-02-08T04:59:41.662Z,0.20
2018-02-08T05:02:09.557Z,0.10
2018-02-08T05:04:36.998Z,0.10
2018-02-08T05:07:04.451Z,0.10
2018-02-08T05:09:31.907Z,0.10
2018-02-08T05:11:59.348Z,0.00
2018-02-08T05:14:26.792Z,0.00
2018-02-08T05:16:55.021Z,-0.10
2018-02-08T05:19:22.468Z,-0.10
2018-02-08T05:21:49.939Z,-0.20
2018-02-08T05:24:17.388Z,-0.20
2018-02-08T05:26:44.837Z,-0.30
2018-02-08T05:29:12.292Z,-0.30
2018-02-08T05:31:39.727Z,-0.30
2018-02-08T05:34:07.175Z,-0.30
2018-02-08T05:36:34.625Z,-0.30
2018-02-08T05:39:02.843Z,-0.40
2018-02-08T05:41:30.293Z,-0.40
2018-02-08T05:43:57.968Z,-0.40
2018-02-08T05:46:26.182Z,-0.40
2018-02-08T05:48:54.405Z,-0.40
2018-02-08T05:51:21.867Z,-0.40
2018-02-08T05:53:50.325Z,-0.40
2018-02-08T05:56:17.775Z,-0.50
2018-02-08T05:58:45.224Z,-0.50
2018-02-08T06:01:12.678Z,-0.50
2018-02-08T06:03:40.904Z,-0.60
2018-02-08T06:06:08.349Z,-0.60
2018-02-08T06:08:35.810Z,-0.60
2018-02-08T06:11:03.260Z,-0.60
2018-02-08T06:13:30.717Z,-0.60
2018-02-08T06:15:58.176Z,-0.60
2018-02-08T06:18:25.779Z,-0.50
2018-02-08T06:20:53.232Z,-0.60
2018-02-08T06:23:20.695Z,-0.60
2018-02-08T06:25:48.137Z,-0.60
2018-02-08T06:28:15.584Z,-0.60
2018-02-08T06:30:43.029Z,-0.70
2018-02-08T06:33:10.488Z,-0.70
2018-02-08T06:35:37.929Z,-0.80
2018-02-08T06:38:05.384Z,-0.80
2018-02-08T06:40:32.835Z,-0.80
2018-02-08T06:43:04.169Z,-0.80
2018-02-08T06:45:32.380Z,-0.70
2018-02-08T06:48:00.031Z,-0.70
2018-02-08T06:50:27.478Z,-0.70
2018-02-08T06:52:55.309Z,-0.70
2018-02-08T06:55:22.776Z,-0.70
2018-02-08T06:57:51.003Z,-0.80
2018-02-08T07:00:18.460Z,-0.80
2018-02-08T07:02:45.916Z,-0.80
2018-02-08T07:05:13.369Z,-0.80
2018-02-08T07:07:40.825Z,-0.80
2018-02-08T07:10:08.271Z,-0.80
2018-02-08T07:12:35.725Z,-1.00
2018-02-08T07:15:03.186Z,-1.10
2018-02-08T07:17:33.688Z,-1.10
2018-02-08T07:20:05.567Z,-1.10
2018-02-08T07:22:33.022Z,-1.10
2018-02-08T07:25:08.028Z,-1.00
2018-02-08T07:27:36.236Z,-1.00
2018-02-08T07:30:03.698Z,-1.00
2018-02-08T07:32:31.141Z,-1.00
2018-02-08T07:34:58.669Z,-0.90
2018-02-08T07:37:26.218Z,-0.90
2018-02-08T07:39:53.665Z,-0.80
2018-02-08T07:42:21.166Z,-0.80
2018-02-08T07:44:49.388Z,-0.70
2018-02-08T07:47:17.027Z,-0.70
2018-02-08T07:49:44.456Z,-0.70
2018-02-08T07:52:12.736Z,-0.50
2018-02-08T07:54:40.944Z,-0.50
2018-02-08T07:57:08.460Z,-0.50
2018-02-08T07:59:35.885Z,-0.40
2018-02-08T08:02:03.355Z,-0.40
2018-02-08T08:04:30.788Z,-0.40
2018-02-08T08:06:58.255Z,-0.30
2018-02-08T08:09:26.243Z,-0.30
2018-02-08T08:11:53.677Z,-0.20
2018-02-08T08:14:21.350Z,-0.10
2018-02-08T08:16:48.784Z,0.00
2018-02-08T08:19:16.240Z,0.10
2018-02-08T08:21:43.695Z,0.20
2018-02-08T08:24:11.132Z,0.40
2018-02-08T08:26:38.689Z,0.40
2018-02-08T08:29:06.161Z,0.50
2018-02-08T08:31:33.614Z,0.50
2018-02-08T08:34:01.062Z,0.60
2018-02-08T08:36:28.500Z,0.60
2018-02-08T08:38:56.816Z,0.50
2018-02-08T08:41:24.249Z,0.50
2018-02-08T08:43:53.780Z,0.70
2018-02-08T08:46:21.374Z,0.70
2018-02-08T08:48:48.825Z,0.70
2018-02-08T08:51:16.270Z,0.80
2018-02-08T08:53:43.796Z,0.70
2018-02-08T08:56:11.249Z,0.80
2018-02-08T08:58:38.774Z,0.80
2018-02-08T09:01:06.207Z,0.90
2018-02-08T09:03:33.751Z,0.90
2018-02-08T09:06:01.217Z,1.00
2018-02-08T09:08:28.815Z,1.10
2018-02-08T09:10:57.149Z,1.20
2018-02-08T09:13:24.591Z,1.10
2018-02-08T09:15:52.089Z,1.00
2018-02-08T09:18:19.540Z,1.00
2018-02-08T09:20:46.994Z,1.00
2018-02-08T09:23:14.566Z,1.10
2018-02-08T09:25:42.012Z,1.20
2018-02-08T09:28:09.464Z,1.20
2018-02-08T09:30:37.008Z,1.20
2018-02-08T09:33:04.852Z,1.30
2018-02-08T09:35:32.282Z,1.30
2018-02-08T09:38:00.497Z,1.30
2018-02-08T09:40:28.008Z,1.30
2018-02-08T09:42:56.237Z,1.50
2018-02-08T09:45:23.764Z,1.50
2018-02-08T09:47:51.223Z,1.30
2018-02-08T09:50:18.656Z,1.20
2018-02-08T09:52:46.872Z,1.10
2018-02-08T09:55:14.425Z,1.00
2018-02-08T09:57:41.866Z,1.00
2018-02-08T10:00:10.081Z,1.20
2018-02-08T10:02:37.539Z,1.20
2018-02-08T10:05:04.989Z,1.40
2018-02-08T10:07:32.435Z,1.50
2018-02-08T10:10:00.044Z,2.10
2018-02-08T10:12:27.507Z,3.70
2018-02-08T10:14:54.996Z,5.00
2018-02-08T10:17:24.734Z,7.10
2018-02-08T10:19:52.289Z,7.10
2018-02-08T10:22:19.892Z,8.10
2018-02-08T10:24:47.339Z,8.80
2018-02-08T10:27:14.790Z,9.40
2018-02-08T10:29:42.263Z,10.30
2018-02-08T10:32:09.717Z,10.20
2018-02-08T10:34:37.161Z,10.50
2018-02-08T10:37:06.669Z,10.80
2018-02-08T10:39:34.111Z,10.80
2018-02-08T10:42:01.599Z,10.40
2018-02-08T10:44:29.061Z,11.20
2018-02-08T10:46:56.517Z,11.70
2018-02-08T10:49:23.981Z,11.10
2018-02-08T10:51:51.423Z,11.40
2018-02-08T10:54:18.862Z,11.90
2018-02-08T10:56:46.324Z,12.30
2018-02-08T10:59:13.780Z,10.90
2018-02-08T11:01:41.233Z,11.80
2018-02-08T11:04:08.674Z,11.90
2018-02-08T11:06:36.169Z,10.30
2018-02-08T11:09:03.625Z,8.90
2018-02-08T11:11:31.072Z,8.30
2018-02-08T11:13:58.516Z,7.90
2018-02-08T11:16:25.960Z,7.60
2018-02-08T11:18:53.430Z,6.80
2018-02-08T11:21:24.200Z,6.80
2018-02-08T11:23:51.666Z,7.00
2018-02-08T11:26:19.910Z,7.50
2018-02-08T11:28:47.350Z,7.50
2018-02-08T11:31:19.168Z,6.90
2018-02-08T11:33:47.376Z,7.00
2018-02-08T11:36:14.804Z,7.00
2018-02-08T11:38:42.269Z,7.00
2018-02-08T11:41:09.701Z,6.70
2018-02-08T11:43:37.140Z,6.10
2018-02-08T11:46:04.576Z,5.40
2018-02-08T11:48:32.017Z,5.10
2018-02-08T11:50:59.454Z,4.80
2018-02-08T11:53:26.904Z,4.70
2018-02-08T11:55:54.339Z,4.50
2018-02-08T11:58:21.788Z,4.60
2018-02-08T12:00:49.233Z,4.70
2018-02-08T12:03:16.690Z,4.50
2018-02-08T12:05:44.120Z,4.50
2018-02-08T12:08:11.632Z,4.50
2018-02-08T12:10:39.837Z,4.40
2018-02-08T12:13:07.277Z,4.40
2018-02-08T12:15:35.512Z,4.30
2018-02-08T12:18:03.004Z,4.20
2018-02-08T12:20:35.488Z,4.20
2018-02-08T12:23:03.741Z,4.20
2018-02-08T12:25:31.222Z,4.20
2018-02-08T12:27:59.698Z,3.90
2018-02-08T12:30:27.917Z,3.90
2018-02-08T12:32:55.368Z,3.80
2018-02-08T12:35:22.804Z,3.90
2018-02-08T12:37:50.248Z,3.80
2018-02-08T12:40:17.707Z,3.80
2018-02-08T12:42:45.149Z,3.90
2018-02-08T12:45:13.378Z,3.80
2018-02-08T12:47:40.876Z,3.80
2018-02-08T12:50:08.312Z,4.00
2018-02-08T12:52:35.992Z,4.00
2018-02-08T12:55:03.433Z,4.00
2018-02-08T12:57:31.142Z,4.10
2018-02-08T12:59:59.608Z,4.10
2018-02-08T13:02:27.813Z,4.10
2018-02-08T13:04:55.250Z,4.10
2018-02-08T13:07:22.689Z,4.00
2018-02-08T13:09:50.903Z,3.90
2018-02-08T13:12:18.335Z,3.90
2018-02-08T13:14:46.549Z,3.90
2018-02-08T13:17:14.019Z,3.90
2018-02-08T13:19:41.468Z,4.10
2018-02-08T13:22:08.909Z,4.10
2018-02-08T13:24:36.357Z,4.10
2018-02-08T13:27:03.796Z,4.20
2018-02-08T13:29:31.252Z,4.30
2018-02-08T13:32:01.919Z,4.20
2018-02-08T13:34:29.351Z,4.20
2018-02-08T13:36:56.789Z,4.30
2018-02-08T13:39:34.896Z,4.40
2018-02-08T13:42:09.697Z,4.30
2018-02-08T13:44:37.151Z,4.30
2018-02-08T13:47:09.216Z,4.20
2018-02-08T13:49:42.277Z,4.30
2018-02-08T13:55:17.100Z,4.30
2018-02-08T13:57:51.172Z,4.40
2018-02-08T14:00:24.411Z,4.40
2018-02-08T14:02:51.852Z,4.30
2018-02-08T14:05:20.065Z,4.00
2018-02-08T14:07:51.116Z,4.00
2018-02-08T14:10:18.576Z,4.00
2018-02-08T14:12:46.009Z,3.90
2018-02-08T14:15:13.451Z,3.90
2018-02-08T14:17:40.996Z,3.90
2018-02-08T14:20:08.462Z,3.90
2018-02-08T14:22:36.699Z,3.90
2018-02-08T14:25:17.465Z,3.90
2018-02-08T14:27:44.912Z,3.90
2018-02-08T14:30:12.372Z,3.90
2018-02-08T14:32:39.816Z,3.70
2018-02-08T14:35:07.277Z,3.70
2018-02-08T14:37:34.711Z,3.60
2018-02-08T14:40:02.168Z,3.70
2018-02-08T14:42:29.600Z,3.60
2018-02-08T14:44:57.795Z,3.70
2018-02-08T14:47:25.257Z,3.70
2018-02-08T14:49:52.679Z,3.80
2018-02-08T14:52:20.903Z,3.70
2018-02-08T14:54:48.360Z,3.70
2018-02-08T14:57:15.812Z,3.70
2018-02-08T14:59:43.255Z,3.80
2018-02-08T15:02:10.901Z,3.90
2018-02-08T15:04:38.355Z,3.90
2018-02-08T15:07:06.575Z,3.90
2018-02-08T15:09:34.018Z,3.90
2018-02-08T15:12:01.465Z,3.70
2018-02-08T15:14:28.899Z,3.60
2018-02-08T15:16:59.146Z,3.50
2018-02-08T15:19:26.578Z,3.50
2018-02-08T15:21:54.795Z,3.10
2018-02-08T15:24:22.250Z,3.10
2018-02-08T15:26:49.694Z,3.00
2018-02-08T15:29:17.133Z,2.90
2018-02-08T15:31:45.351Z,3.10
2018-02-08T15:34:12.797Z,3.00
2018-02-08T15:36:40.247Z,3.10
2018-02-08T15:39:07.685Z,3.10
2018-02-08T15:41:35.143Z,3.00
2018-02-08T15:44:02.597Z,2.90
2018-02-08T15:46:30.806Z,2.90
2018-02-08T15:48:58.262Z,2.90
2018-02-08T15:51:25.700Z,3.00
2018-02-08T15:53:53.148Z,3.00
2018-02-08T15:56:20.595Z,2.90
2018-02-08T15:58:48.819Z,2.50
2018-02-08T16:01:16.272Z,2.50
2018-02-08T16:03:43.729Z,2.40
2018-02-08T16:06:11.179Z,2.40
2018-02-08T16:08:39.634Z,2.40
2018-02-08T16:11:07.082Z,2.30
2018-02-08T16:13:34.576Z,2.30
2018-02-08T16:16:02.017Z,2.20
2018-02-08T16:18:29.473Z,2.00
2018-02-08T16:21:00.095Z,2.10
2018-02-08T16:23:28.331Z,1.90
2018-02-08T16:25:55.811Z,1.90
2018-02-08T16:28:24.031Z,1.90
2018-02-08T16:30:51.498Z,1.90
2018-02-08T16:33:18.937Z,1.90
2018-02-08T16:35:46.399Z,1.90
2018-02-08T16:38:13.838Z,1.80
2018-02-08T16:40:41.309Z,1.70
2018-02-08T16:43:08.772Z,1.70
2018-02-08T16:45:36.228Z,1.70
2018-02-08T16:48:03.692Z,1.70
2018-02-08T16:50:31.144Z,1.60
2018-02-08T16:52:58.602Z,1.50
2018-02-08T16:55:26.053Z,1.50
2018-02-08T16:57:53.502Z,1.30
2018-02-08T17:00:20.944Z,1.40
2018-02-08T17:02:48.393Z,1.40
2018-02-08T17:05:16.603Z,1.40
2018-02-08T17:07:45.058Z,1.40
2018-02-08T17:10:12.517Z,1.40
2018-02-08T17:12:40.718Z,1.40
2018-02-08T17:15:08.149Z,1.40
2018-02-08T17:17:35.675Z,1.40
2018-02-08T17:20:03.124Z,1.20
2018-02-08T17:22:30.623Z,1.20
2018-02-08T17:24:58.079Z,1.20
2018-02-08T17:27:25.533Z,1.20
2018-02-08T17:29:56.774Z,1.10
2018-02-08T17:32:24.995Z,1.00
2018-02-08T17:34:52.440Z,1.00
2018-02-08T17:37:19.900Z,1.10
2018-02-08T17:39:47.358Z,1.10
2018-02-08T17:42:14.813Z,1.10
2018-02-08T17:44:42.269Z,1.00
2018-02-08T17:47:10.723Z,0.90
2018-02-08T17:49:38.168Z,0.90
2018-02-08T17:52:06.409Z,1.00
2018-02-08T17:54:33.858Z,1.00
2018-02-08T17:57:02.307Z,1.00
2018-02-08T17:59:29.746Z,1.00
2018-02-08T18:01:57.190Z,0.90
2018-02-08T18:04:26.402Z,0.90
2018-02-08T18:06:54.618Z,0.90
2018-02-08T18:09:22.077Z,0.90
2018-02-08T18:11:49.522Z,1.00
2018-02-08T18:14:16.966Z,0.90
2018-02-08T18:16:44.413Z,0.90
2018-02-08T18:19:11.870Z,0.90
2018-02-08T18:21:39.317Z,0.90
2018-02-08T18:24:07.529Z,0.90
2018-02-08T18:26:37.008Z,0.80
2018-02-08T18:29:04.453Z,0.90
2018-02-08T18:31:32.665Z,0.80
2018-02-08T18:34:01.253Z,0.80
2018-02-08T18:36:40.228Z,0.70
2018-02-08T18:39:07.737Z,0.70
2018-02-08T18:41:35.179Z,0.80
2018-02-08T18:44:02.636Z,0.70
2018-02-08T18:46:30.093Z,0.70
2018-02-08T18:48:58.553Z,0.70
2018-02-08T18:51:26.785Z,0.70
2018-02-08T18:53:54.996Z,0.70
2018-02-08T18:56:22.440Z,0.60
2018-02-08T18:58:49.884Z,0.60
2018-02-08T19:01:17.710Z,0.60
2018-02-08T19:03:45.163Z,0.60
2018-02-08T19:06:14.663Z,0.60
2018-02-08T19:08:46.106Z,0.60
2018-02-08T19:11:13.551Z,0.60
2018-02-08T19:13:41.765Z,0.60
2018-02-08T19:16:09.220Z,0.60
2018-02-08T19:18:36.677Z,0.60
2018-02-08T19:21:04.115Z,0.60
2018-02-08T19:23:31.551Z,0.60
2018-02-08T19:25:59.759Z,0.50
2018-02-08T19:28:27.196Z,0.50
2018-02-08T19:30:54.663Z,0.40
2018-02-08T19:33:22.104Z,0.40
2018-02-08T19:35:50.380Z,0.20
2018-02-08T19:38:18.588Z,0.20
2018-02-08T19:40:46.054Z,0.20
2018-02-08T19:43:13.486Z,0.20
2018-02-08T19:45:40.940Z,0.10
2018-02-08T19:48:08.426Z,0.00
2018-02-08T19:50:37.897Z,0.00
2018-02-08T19:53:06.120Z,-0.10
2018-02-08T19:55:33.564Z,-0.10
2018-02-08T19:58:01.040Z,-0.10
2018-02-08T20:00:28.519Z,-0.10
2018-02-08T20:02:58.251Z,-0.10
2018-02-08T20:05:26.538Z,-0.10
2018-02-08T20:07:53.972Z,-0.20
2018-02-08T20:10:22.206Z,-0.20
2018-02-08T20:12:50.494Z,-0.30
2018-02-08T20:15:21.414Z,-0.30
2018-02-08T20:17:48.871Z,-0.30
2018-02-08T20:20:18.334Z,-0.30
2018-02-08T20:22:46.701Z,-0.30
2018-02-08T20:25:20.798Z,-0.30
2018-02-08T20:27:48.245Z,-0.30
2018-02-08T20:30:21.548Z,-0.40
2018-02-08T20:32:50.071Z,-0.50
2018-02-08T20:35:18.493Z,-0.60
2018-02-08T20:37:45.997Z,-0.60
2018-02-08T20:40:20.724Z,-0.70
2018-02-08T20:42:57.782Z,-0.80
2018-02-08T20:45:25.232Z,-0.90
2018-02-08T20:47:52.786Z,-0.90
2018-02-08T20:50:20.295Z,-0.80
2018-02-08T20:52:47.921Z,-0.80
2018-02-08T20:55:15.370Z,-0.80
2018-02-08T20:57:42.818Z,-0.90
2018-02-08T21:00:10.275Z,-0.90
2018-02-08T21:02:39.828Z,-0.90
2018-02-08T21:05:07.335Z,-0.90
2018-02-08T21:07:34.801Z,-1.00
2018-02-08T21:10:02.274Z,-1.10
2018-02-08T21:12:29.835Z,-1.10
2018-02-08T21:14:57.313Z,-1.10
2018-02-08T21:17:24.855Z,-1.10
2018-02-08T21:19:52.308Z,-1.10
2018-02-08T21:22:23.616Z,-1.10
2018-02-08T21:24:52.012Z,-1.10
2018-02-08T21:27:19.531Z,-1.10
2018-02-08T21:29:46.981Z,-1.10
2018-02-08T21:32:16.476Z,-1.10
2018-02-08T21:34:44.687Z,-1.10
2018-02-08T21:37:12.154Z,-1.10
2018-02-08T21:39:39.688Z,-1.10
2018-02-08T21:42:07.125Z,-1.20
2018-02-08T21:44:35.438Z,-1.30
2018-02-08T21:47:02.899Z,-1.30
2018-02-08T21:49:30.371Z,-1.30
2018-02-08T21:51:57.795Z,-1.30
2018-02-08T21:54:25.253Z,-1.30
2018-02-08T21:56:52.753Z,-1.30
2018-02-08T21:59:20.151Z,-1.30
2018-02-08T22:01:47.604Z,-1.40
2018-02-08T22:04:15.825Z,-1.50
2018-02-08T22:06:43.340Z,-1.50
2018-02-08T22:09:11.561Z,-1.50
2018-02-08T22:11:39.030Z,-1.50
2018-02-08T22:14:06.467Z,-1.60
2018-02-08T22:16:33.913Z,-1.70
2018-02-08T22:19:01.377Z,-1.70
2018-02-08T22:21:28.909Z,-1.70
2018-02-08T22:23:56.372Z,-1.70
2018-02-08T22:26:24.837Z,-1.70
2018-02-08T22:28:53.070Z,-1.90
2018-02-08T22:31:20.519Z,-1.90
2018-02-08T22:33:47.973Z,-1.80
2018-02-08T22:36:15.410Z,-1.80
2018-02-08T22:38:42.953Z,-1.80
2018-02-08T22:41:10.425Z,-1.90
2018-02-08T22:43:37.895Z,-1.90
2018-02-08T22:46:05.352Z,-2.00
2018-02-08T22:48:32.819Z,-2.00
2018-02-08T22:51:00.283Z,-2.00
2018-02-08T22:53:27.732Z,-1.90
2018-02-08T22:55:55.168Z,-2.00
2018-02-08T22:58:22.628Z,-2.00
2018-02-08T23:00:50.160Z,-2.00
2018-02-08T23:03:18.387Z,-2.00
2018-02-08T23:05:45.833Z,-2.00
2018-02-08T23:08:14.383Z,-1.90
2018-02-08T23:10:42.583Z,-1.90
2018-02-08T23:13:10.033Z,-1.90
2018-02-08T23:15:37.480Z,-1.90
2018-02-08T23:18:04.945Z,-1.80
2018-02-08T23:20:32.388Z,-1.90
2018-02-08T23:23:00.609Z,-1.80
2018-02-08T23:25:28.061Z,-1.80
2018-02-08T23:27:55.513Z,-1.80
2018-02-08T23:30:22.972Z,-1.80
2018-02-08T23:32:50.419Z,-1.90
2018-02-08T23:35:17.873Z,-1.80
2018-02-08T23:37:45.324Z,-1.90
2018-02-08T23:40:14.820Z,-1.90
2018-02-08T23:42:42.270Z,-1.90
2018-02-08T23:45:10.486Z,-1.90
2018-02-08T23:47:37.936Z,-2.00
2018-02-08T23:50:05.393Z,-2.00
2018-02-08T23:52:32.854Z,-2.00
2018-02-08T23:55:00.320Z,-1.90
2018-02-08T23:57:27.762Z,-1.90
2018-02-08T23:59:56.208Z,-1.90
